LICB/CIY METAR and TAF weather

Enter ICAO airport designator
Station Type Date Time Source
LICB METAR 2022/11/27 08:20 UTC NOAA

LICB 270820Z AUTO 04025G38KT 9999 -DZRA SCT022/// BKN140/// 13/09 Q1010


Station Type Date Time Source
LICB Decoded METAR 2022/11/27 08:20 UTC NOAA

Comiso As Usaf , Italy (LICB) 36-56N 014-36E
Nov 27, 2022 - 03:20 AM EST / 2022.11.27 0820 UTC
Wind: from the NE (040 degrees) at 29 MPH (25 KT) gusting to 44 MPH (38 KT):0
Visibility: greater than 7 mile(s):0
Sky conditions: mostly cloudy
Weather: light drizzle, rain
Temperature: 55 F (13 C)
Dew Point: 48 F (9 C)
Relative Humidity: 76%
Pressure (altimeter): 29.83 in. Hg (1010 hPa)
ob: LICB 270820Z AUTO 04025G38KT 9999 -DZRA SCT022/// BKN140/// 13/09 Q1010
cycle: 8

Station Type Date Time Source
LICB TAF 2022/11/27 06:00 UTC NOAA

TAF LICB 270500Z 2706/2806 06018G28KT 9999 BKN025
TEMPO 2706/2715 RA
BECMG 2718/2720 VRB05KT

Example: see airport list